Time;durP1;ratioP1;P1;durP2;ratioP2;P2;SDS_P1;SDS_P2;PMS_P1;PMS_P2;Temp;Humidity;BMP_temperature;BMP_pressure;BME280_temperature;BME280_humidity;BME280_pressure;Samples;Min_cycle;Max_cycle;Signal;HPM_P1;HPM_P2
2022/05/25 00:00:36;;;;;;;2.5;2.3;;;;;;;12.65;100;94991.19;;;;
2022/05/25 00:01:37;;;;;;;2.5;2.3;;;;;;;12.65;100;94991.19;;;;
2022/05/25 00:02:37;;;;;;;2.5;2.3;;;;;;;12.65;100;94991.19;;;;
2022/05/25 00:03:39;;;;;;;2.5;2.3;;;;;;;12.65;100;94991.19;;;;
2022/05/25 00:04:39;;;;;;;2.5;2.3;;;;;;;12.65;100;94991.19;;;;
2022/05/25 00:05:40;;;;;;;2.5;2.3;;;;;;;12.65;100;94991.19;;;;
2022/05/25 00:06:41;;;;;;;2.5;2.3;;;;;;;12.65;100;94991.19;;;;
2022/05/25 00:07:42;;;;;;;2.55;2.35;;;;;;;12.65;100;94988.54;;;;
2022/05/25 00:08:43;;;;;;;2.55;2.35;;;;;;;12.65;100;94988.54;;;;
2022/05/25 00:09:44;;;;;;;2.55;2.35;;;;;;;12.65;100;94988.54;;;;
2022/05/25 00:10:44;;;;;;;2.55;2.35;;;;;;;12.65;100;94988.54;;;;
2022/05/25 00:11:45;;;;;;;2.55;2.35;;;;;;;12.65;100;94988.54;;;;
2022/05/25 00:12:45;;;;;;;2.55;2.35;;;;;;;12.65;100;94988.54;;;;
2022/05/25 00:13:46;;;;;;;2.55;2.35;;;;;;;12.65;100;94988.54;;;;
2022/05/25 00:14:46;;;;;;;2.55;2.35;;;;;;;12.65;100;94988.54;;;;
2022/05/25 00:15:48;;;;;;;2.55;2.35;;;;;;;12.65;100;94988.54;;;;
2022/05/25 00:16:48;;;;;;;2.55;2.35;;;;;;;12.65;100;94988.54;;;;
2022/05/25 00:17:50;;;;;;;2.55;2.35;;;;;;;12.65;100;94988.54;;;;
2022/05/25 00:24:00;;;;;;;4.05;2.5;;;;;;;12.67;100;94973.72;;;;
2022/05/25 00:25:01;;;;;;;4.05;2.5;;;;;;;12.67;100;94973.72;;;;
2022/05/25 00:26:01;;;;;;;4.05;2.5;;;;;;;12.67;100;94973.72;;;;
2022/05/25 00:27:02;;;;;;;4.05;2.5;;;;;;;12.67;100;94973.72;;;;
2022/05/25 00:28:03;;;;;;;4.05;2.5;;;;;;;12.67;100;94973.72;;;;
2022/05/25 00:29:06;;;;;;;2.8;2.2;;;;;;;12.67;100;94966.17;;;;
2022/05/25 00:30:07;;;;;;;2.8;2.2;;;;;;;12.67;100;94966.17;;;;
2022/05/25 00:31:09;;;;;;;2.8;2.2;;;;;;;12.67;100;94966.17;;;;
2022/05/25 00:32:10;;;;;;;2.8;2.2;;;;;;;12.67;100;94966.17;;;;
2022/05/25 00:33:10;;;;;;;2.8;2.2;;;;;;;12.67;100;94966.17;;;;
2022/05/25 00:34:12;;;;;;;2.8;2.2;;;;;;;12.67;100;94966.17;;;;
2022/05/25 00:35:13;;;;;;;2.8;2.2;;;;;;;12.67;100;94966.17;;;;
2022/05/25 00:36:18;;;;;;;2.8;2.2;;;;;;;12.67;100;94966.17;;;;
2022/05/25 00:37:18;;;;;;;2.8;2.2;;;;;;;12.67;100;94966.17;;;;
2022/05/25 00:38:19;;;;;;;2.8;2.2;;;;;;;12.67;100;94966.17;;;;
2022/05/25 00:39:20;;;;;;;2.8;2.2;;;;;;;12.67;100;94966.17;;;;
2022/05/25 00:40:21;;;;;;;2.5;2.3;;;;;;;12.65;100;94965.19;;;;
2022/05/25 00:41:28;;;;;;;2.5;2.3;;;;;;;12.65;100;94965.19;;;;
2022/05/25 00:42:29;;;;;;;2.5;2.3;;;;;;;12.65;100;94965.19;;;;
2022/05/25 00:43:29;;;;;;;2.5;2.3;;;;;;;12.65;100;94965.19;;;;
2022/05/25 00:44:30;;;;;;;2.5;2.3;;;;;;;12.65;100;94965.19;;;;
2022/05/25 00:45:30;;;;;;;2.5;2.3;;;;;;;12.65;100;94965.19;;;;
2022/05/25 00:46:35;;;;;;;2.5;2.3;;;;;;;12.65;100;94965.19;;;;
2022/05/25 00:47:38;;;;;;;2.5;2.3;;;;;;;12.65;100;94965.19;;;;
2022/05/25 00:48:41;;;;;;;2.5;2.3;;;;;;;12.65;100;94965.19;;;;
2022/05/25 00:49:45;;;;;;;2.5;2.3;;;;;;;12.65;100;94965.19;;;;
2022/05/25 00:51:21;;;;;;;3;2.35;;;;;;;12.61;100;94939.26;;;;
2022/05/25 00:52:27;;;;;;;3;2.35;;;;;;;12.61;100;94939.26;;;;
2022/05/25 00:53:27;;;;;;;3;2.35;;;;;;;12.61;100;94939.26;;;;
2022/05/25 00:54:28;;;;;;;3;2.35;;;;;;;12.61;100;94939.26;;;;
2022/05/25 00:55:32;;;;;;;3;2.35;;;;;;;12.61;100;94939.26;;;;
2022/05/25 00:56:32;;;;;;;3;2.35;;;;;;;12.61;100;94939.26;;;;
2022/05/25 00:57:35;;;;;;;3;2.35;;;;;;;12.61;100;94939.26;;;;
2022/05/25 00:58:40;;;;;;;3;2.35;;;;;;;12.61;100;94939.26;;;;
2022/05/25 00:59:45;;;;;;;3;2.35;;;;;;;12.61;100;94939.26;;;;
2022/05/25 01:00:54;;;;;;;3;2.35;;;;;;;12.61;100;94939.26;;;;
2022/05/25 01:01:54;;;;;;;2.8;2.6;;;;;;;12.56;100;94956.39;;;;
2022/05/25 01:02:55;;;;;;;2.8;2.6;;;;;;;12.56;100;94956.39;;;;
2022/05/25 01:03:59;;;;;;;2.8;2.6;;;;;;;12.56;100;94956.39;;;;
2022/05/25 01:05:00;;;;;;;2.8;2.6;;;;;;;12.56;100;94956.39;;;;
2022/05/25 01:06:01;;;;;;;2.8;2.6;;;;;;;12.56;100;94956.39;;;;
2022/05/25 01:07:08;;;;;;;2.8;2.6;;;;;;;12.56;100;94956.39;;;;
2022/05/25 01:08:25;;;;;;;2.8;2.6;;;;;;;12.56;100;94956.39;;;;
2022/05/25 01:09:38;;;;;;;2.8;2.6;;;;;;;12.56;100;94956.39;;;;
2022/05/25 01:10:52;;;;;;;2.8;2.6;;;;;;;12.56;100;94956.39;;;;
2022/05/25 01:12:05;;;;;;;2.7;2.5;;;;;;;12.53;100;94972.77;;;;
2022/05/25 01:13:16;;;;;;;2.7;2.5;;;;;;;12.53;100;94972.77;;;;
2022/05/25 01:14:30;;;;;;;2.7;2.5;;;;;;;12.53;100;94972.77;;;;
2022/05/25 01:15:41;;;;;;;2.7;2.5;;;;;;;12.53;100;94972.77;;;;
2022/05/25 01:16:51;;;;;;;2.7;2.5;;;;;;;12.53;100;94972.77;;;;
2022/05/25 01:18:03;;;;;;;2.7;2.5;;;;;;;12.53;100;94972.77;;;;
2022/05/25 01:19:13;;;;;;;2.7;2.5;;;;;;;12.53;100;94972.77;;;;
2022/05/25 01:20:32;;;;;;;2.7;2.5;;;;;;;12.53;100;94972.77;;;;
2022/05/25 01:21:37;;;;;;;2.7;2.5;;;;;;;12.53;100;94972.77;;;;
2022/05/25 01:22:48;;;;;;;3.5;2.4;;;;;;;12.56;100;94985.55;;;;
2022/05/25 01:24:07;;;;;;;3.5;2.4;;;;;;;12.56;100;94985.55;;;;
2022/05/25 01:25:26;;;;;;;3.5;2.4;;;;;;;12.56;100;94985.55;;;;
2022/05/25 01:26:51;;;;;;;3.5;2.4;;;;;;;12.56;100;94985.55;;;;
2022/05/25 01:28:11;;;;;;;3.5;2.4;;;;;;;12.56;100;94985.55;;;;
2022/05/25 01:29:23;;;;;;;3.5;2.4;;;;;;;12.56;100;94985.55;;;;
2022/05/25 01:30:47;;;;;;;3.5;2.4;;;;;;;12.56;100;94985.55;;;;
2022/05/25 01:31:52;;;;;;;3.5;2.4;;;;;;;12.56;100;94985.55;;;;
2022/05/25 01:32:57;;;;;;;3.5;2.4;;;;;;;12.56;100;94985.55;;;;
2022/05/25 01:34:10;;;;;;;2.699999;2.4;;;;;;;12.56;100;94989.4;;;;
2022/05/25 01:35:19;;;;;;;2.699999;2.4;;;;;;;12.56;100;94989.4;;;;
2022/05/25 01:36:30;;;;;;;2.699999;2.4;;;;;;;12.56;100;94989.4;;;;
2022/05/25 01:37:39;;;;;;;2.699999;2.4;;;;;;;12.56;100;94989.4;;;;
2022/05/25 01:38:46;;;;;;;2.699999;2.4;;;;;;;12.56;100;94989.4;;;;
2022/05/25 01:39:50;;;;;;;2.699999;2.4;;;;;;;12.56;100;94989.4;;;;
2022/05/25 01:40:59;;;;;;;2.699999;2.4;;;;;;;12.56;100;94989.4;;;;
2022/05/25 01:42:06;;;;;;;2.699999;2.4;;;;;;;12.56;100;94989.4;;;;
2022/05/25 01:43:25;;;;;;;2.699999;2.4;;;;;;;12.56;100;94989.4;;;;
2022/05/25 01:44:32;;;;;;;3.7;3;;;;;;;12.5;100;94988.19;;;;
2022/05/25 01:45:40;;;;;;;3.7;3;;;;;;;12.5;100;94988.19;;;;
2022/05/25 01:46:46;;;;;;;3.7;3;;;;;;;12.5;100;94988.19;;;;
2022/05/25 01:47:50;;;;;;;3.7;3;;;;;;;12.5;100;94988.19;;;;
2022/05/25 01:48:53;;;;;;;3.7;3;;;;;;;12.5;100;94988.19;;;;
2022/05/25 01:49:55;;;;;;;3.7;3;;;;;;;12.5;100;94988.19;;;;
2022/05/25 01:51:02;;;;;;;3.7;3;;;;;;;12.5;100;94988.19;;;;
2022/05/25 01:52:09;;;;;;;3.7;3;;;;;;;12.5;100;94988.19;;;;
2022/05/25 01:53:15;;;;;;;3.7;3;;;;;;;12.5;100;94988.19;;;;
2022/05/25 01:54:19;;;;;;;3.7;3;;;;;;;12.5;100;94988.19;;;;
2022/05/25 01:55:23;;;;;;;3.35;3.05;;;;;;;12.46;100;94988.78;;;;
2022/05/25 01:56:28;;;;;;;3.35;3.05;;;;;;;12.46;100;94988.78;;;;
2022/05/25 01:57:33;;;;;;;3.35;3.05;;;;;;;12.46;100;94988.78;;;;
2022/05/25 01:58:37;;;;;;;3.35;3.05;;;;;;;12.46;100;94988.78;;;;
2022/05/25 01:59:41;;;;;;;3.35;3.05;;;;;;;12.46;100;94988.78;;;;
2022/05/25 02:00:42;;;;;;;3.35;3.05;;;;;;;12.46;100;94988.78;;;;
2022/05/25 02:01:45;;;;;;;3.35;3.05;;;;;;;12.46;100;94988.78;;;;
2022/05/25 02:08:15;;;;;;;4.5;4.1;;;;;;;12.43;100;95010.46;;;;
2022/05/25 02:09:27;;;;;;;4.5;4.1;;;;;;;12.43;100;95010.46;;;;
2022/05/25 02:10:52;;;;;;;4.5;4.1;;;;;;;12.43;100;95010.46;;;;
2022/05/25 02:12:03;;;;;;;4.5;4.1;;;;;;;12.43;100;95010.46;;;;
2022/05/25 02:13:12;;;;;;;4.5;4.1;;;;;;;12.43;100;95010.46;;;;
2022/05/25 02:14:26;;;;;;;4.5;4.1;;;;;;;12.43;100;95010.46;;;;
2022/05/25 02:15:35;;;;;;;4.5;4.1;;;;;;;12.43;100;95010.46;;;;
2022/05/25 02:16:47;;;;;;;5.6;4.5;;;;;;;12.48;100;95000.89;;;;
2022/05/25 02:17:59;;;;;;;5.6;4.5;;;;;;;12.48;100;95000.89;;;;
2022/05/25 02:19:05;;;;;;;5.6;4.5;;;;;;;12.48;100;95000.89;;;;
2022/05/25 02:20:14;;;;;;;5.6;4.5;;;;;;;12.48;100;95000.89;;;;
2022/05/25 02:21:22;;;;;;;5.6;4.5;;;;;;;12.48;100;95000.89;;;;
2022/05/25 02:22:31;;;;;;;5.6;4.5;;;;;;;12.48;100;95000.89;;;;
2022/05/25 02:23:39;;;;;;;5.6;4.5;;;;;;;12.48;100;95000.89;;;;
2022/05/25 02:24:49;;;;;;;5.6;4.5;;;;;;;12.48;100;95000.89;;;;
2022/05/25 02:25:53;;;;;;;5.6;4.5;;;;;;;12.48;100;95000.89;;;;
2022/05/25 02:26:58;;;;;;;4.749999;4.35;;;;;;;12.47;100;95015.16;;;;
2022/05/25 02:28:03;;;;;;;4.749999;4.35;;;;;;;12.47;100;95015.16;;;;
2022/05/25 02:29:10;;;;;;;4.749999;4.35;;;;;;;12.47;100;95015.16;;;;
2022/05/25 02:30:16;;;;;;;4.749999;4.35;;;;;;;12.47;100;95015.16;;;;
2022/05/25 02:31:20;;;;;;;4.749999;4.35;;;;;;;12.47;100;95015.16;;;;
2022/05/25 02:32:24;;;;;;;4.749999;4.35;;;;;;;12.47;100;95015.16;;;;
2022/05/25 02:33:31;;;;;;;4.749999;4.35;;;;;;;12.47;100;95015.16;;;;
2022/05/25 02:34:36;;;;;;;4.749999;4.35;;;;;;;12.47;100;95015.16;;;;
2022/05/25 02:35:41;;;;;;;4.749999;4.35;;;;;;;12.47;100;95015.16;;;;
2022/05/25 02:36:45;;;;;;;4.749999;4.35;;;;;;;12.47;100;95015.16;;;;
2022/05/25 02:37:48;;;;;;;5.25;4.65;;;;;;;12.47;100;95026.18;;;;
2022/05/25 02:38:51;;;;;;;5.25;4.65;;;;;;;12.47;100;95026.18;;;;
2022/05/25 02:39:52;;;;;;;5.25;4.65;;;;;;;12.47;100;95026.18;;;;
2022/05/25 02:40:54;;;;;;;5.25;4.65;;;;;;;12.47;100;95026.18;;;;
2022/05/25 02:42:03;;;;;;;5.25;4.65;;;;;;;12.47;100;95026.18;;;;
2022/05/25 02:43:12;;;;;;;5.25;4.65;;;;;;;12.47;100;95026.18;;;;
2022/05/25 02:44:12;;;;;;;5.25;4.65;;;;;;;12.47;100;95026.18;;;;
2022/05/25 02:45:14;;;;;;;5.25;4.65;;;;;;;12.47;100;95026.18;;;;
2022/05/25 02:46:14;;;;;;;5.25;4.65;;;;;;;12.47;100;95026.18;;;;
2022/05/25 02:47:14;;;;;;;5.25;4.65;;;;;;;12.47;100;95026.18;;;;
2022/05/25 02:48:15;;;;;;;5.199999;4.65;;;;;;;12.49;100;95023.19;;;;
2022/05/25 02:49:16;;;;;;;5.199999;4.65;;;;;;;12.49;100;95023.19;;;;
2022/05/25 02:50:18;;;;;;;5.199999;4.65;;;;;;;12.49;100;95023.19;;;;
2022/05/25 02:51:18;;;;;;;5.199999;4.65;;;;;;;12.49;100;95023.19;;;;
2022/05/25 02:52:19;;;;;;;5.199999;4.65;;;;;;;12.49;100;95023.19;;;;
2022/05/25 02:53:22;;;;;;;5.199999;4.65;;;;;;;12.49;100;95023.19;;;;
2022/05/25 02:54:23;;;;;;;5.199999;4.65;;;;;;;12.49;100;95023.19;;;;
2022/05/25 02:55:24;;;;;;;5.199999;4.65;;;;;;;12.49;100;95023.19;;;;
2022/05/25 02:56:25;;;;;;;5.199999;4.65;;;;;;;12.49;100;95023.19;;;;
2022/05/25 02:57:26;;;;;;;5.199999;4.65;;;;;;;12.49;100;95023.19;;;;
2022/05/25 02:58:27;;;;;;;4.95;4.550001;;;;;;;12.53;100;95043.44;;;;
2022/05/25 02:59:27;;;;;;;4.95;4.550001;;;;;;;12.53;100;95043.44;;;;
2022/05/25 03:00:28;;;;;;;4.95;4.550001;;;;;;;12.53;100;95043.44;;;;
2022/05/25 03:01:28;;;;;;;4.95;4.550001;;;;;;;12.53;100;95043.44;;;;
2022/05/25 03:02:29;;;;;;;4.95;4.550001;;;;;;;12.53;100;95043.44;;;;
2022/05/25 03:03:29;;;;;;;4.95;4.550001;;;;;;;12.53;100;95043.44;;;;
2022/05/25 03:04:32;;;;;;;4.95;4.550001;;;;;;;12.53;100;95043.44;;;;
2022/05/25 03:05:34;;;;;;;4.95;4.550001;;;;;;;12.53;100;95043.44;;;;
2022/05/25 03:06:34;;;;;;;4.95;4.550001;;;;;;;12.53;100;95043.44;;;;
2022/05/25 03:07:35;;;;;;;4.95;4.550001;;;;;;;12.53;100;95043.44;;;;
2022/05/25 03:08:36;;;;;;;4.95;4.550001;;;;;;;12.53;100;95043.44;;;;
2022/05/25 03:09:36;;;;;;;4.95;4.550001;;;;;;;12.53;100;95043.44;;;;
2022/05/25 03:10:37;;;;;;;4.95;4.550001;;;;;;;12.53;100;95043.44;;;;
2022/05/25 03:11:38;;;;;;;4.95;4.550001;;;;;;;12.53;100;95043.44;;;;
2022/05/25 03:12:39;;;;;;;4.95;4.550001;;;;;;;12.53;100;95043.44;;;;
2022/05/25 03:13:41;;;;;;;4.95;4.550001;;;;;;;12.53;100;95043.44;;;;
2022/05/25 03:14:42;;;;;;;4.95;4.550001;;;;;;;12.53;100;95043.44;;;;
2022/05/25 03:15:43;;;;;;;4.95;4.550001;;;;;;;12.53;100;95043.44;;;;
2022/05/25 03:16:43;;;;;;;4.95;4.550001;;;;;;;12.53;100;95043.44;;;;
2022/05/25 03:17:44;;;;;;;4.95;4.550001;;;;;;;12.53;100;95043.44;;;;
2022/05/25 03:18:44;;;;;;;4.95;4.550001;;;;;;;12.53;100;95043.44;;;;
2022/05/25 03:19:45;;;;;;;4.95;4.550001;;;;;;;12.53;100;95043.44;;;;
2022/05/25 03:20:50;;;;;;;5.1;4.649999;;;;;;;12.61;100;95050.23;;;;
2022/05/25 03:21:51;;;;;;;5.1;4.649999;;;;;;;12.61;100;95050.23;;;;
2022/05/25 03:22:51;;;;;;;5.1;4.649999;;;;;;;12.61;100;95050.23;;;;
2022/05/25 03:23:52;;;;;;;5.1;4.649999;;;;;;;12.61;100;95050.23;;;;
2022/05/25 03:24:52;;;;;;;5.1;4.649999;;;;;;;12.61;100;95050.23;;;;
2022/05/25 03:25:53;;;;;;;5.1;4.649999;;;;;;;12.61;100;95050.23;;;;
2022/05/25 03:26:54;;;;;;;5.1;4.649999;;;;;;;12.61;100;95050.23;;;;
2022/05/25 03:27:54;;;;;;;5.1;4.649999;;;;;;;12.61;100;95050.23;;;;
2022/05/25 03:28:54;;;;;;;5.1;4.649999;;;;;;;12.61;100;95050.23;;;;
2022/05/25 03:29:55;;;;;;;5.1;4.649999;;;;;;;12.61;100;95050.23;;;;
2022/05/25 03:30:55;;;;;;;5.1;4.400001;;;;;;;12.65;100;95056.67;;;;
2022/05/25 03:31:56;;;;;;;5.1;4.400001;;;;;;;12.65;100;95056.67;;;;
2022/05/25 03:32:57;;;;;;;5.1;4.400001;;;;;;;12.65;100;95056.67;;;;
2022/05/25 03:33:57;;;;;;;5.1;4.400001;;;;;;;12.65;100;95056.67;;;;
2022/05/25 03:34:59;;;;;;;5.1;4.400001;;;;;;;12.65;100;95056.67;;;;
2022/05/25 03:36:00;;;;;;;5.1;4.400001;;;;;;;12.65;100;95056.67;;;;
2022/05/25 03:37:00;;;;;;;5.1;4.400001;;;;;;;12.65;100;95056.67;;;;
2022/05/25 03:38:02;;;;;;;5.1;4.400001;;;;;;;12.65;100;95056.67;;;;
2022/05/25 03:39:02;;;;;;;5.1;4.400001;;;;;;;12.65;100;95056.67;;;;
2022/05/25 03:40:03;;;;;;;5.1;4.400001;;;;;;;12.65;100;95056.67;;;;
2022/05/25 03:41:06;;;;;;;5.1;4.400001;;;;;;;12.65;100;95056.67;;;;
2022/05/25 03:42:07;;;;;;;5.349999;4.75;;;;;;;12.68;100;95074.27;;;;
2022/05/25 03:43:11;;;;;;;5.349999;4.75;;;;;;;12.68;100;95074.27;;;;
2022/05/25 03:44:14;;;;;;;5.349999;4.75;;;;;;;12.68;100;95074.27;;;;
2022/05/25 03:45:16;;;;;;;5.349999;4.75;;;;;;;12.68;100;95074.27;;;;
2022/05/25 03:46:17;;;;;;;5.349999;4.75;;;;;;;12.68;100;95074.27;;;;
2022/05/25 03:47:18;;;;;;;5.349999;4.75;;;;;;;12.68;100;95074.27;;;;
2022/05/25 03:48:18;;;;;;;5.349999;4.75;;;;;;;12.68;100;95074.27;;;;
2022/05/25 03:49:19;;;;;;;5.349999;4.75;;;;;;;12.68;100;95074.27;;;;
2022/05/25 03:50:20;;;;;;;5.349999;4.75;;;;;;;12.68;100;95074.27;;;;
2022/05/25 03:51:20;;;;;;;5.349999;4.75;;;;;;;12.68;100;95074.27;;;;
2022/05/25 03:52:21;;;;;;;6.400001;5.85;;;;;;;12.72;100;95079.82;;;;
2022/05/25 03:53:22;;;;;;;6.400001;5.85;;;;;;;12.72;100;95079.82;;;;
2022/05/25 03:54:23;;;;;;;6.400001;5.85;;;;;;;12.72;100;95079.82;;;;
2022/05/25 03:55:24;;;;;;;6.400001;5.85;;;;;;;12.72;100;95079.82;;;;
2022/05/25 03:56:25;;;;;;;6.400001;5.85;;;;;;;12.72;100;95079.82;;;;
2022/05/25 03:57:26;;;;;;;6.400001;5.85;;;;;;;12.72;100;95079.82;;;;
2022/05/25 03:58:26;;;;;;;6.400001;5.85;;;;;;;12.72;100;95079.82;;;;
2022/05/25 03:59:27;;;;;;;6.400001;5.85;;;;;;;12.72;100;95079.82;;;;
2022/05/25 04:00:28;;;;;;;6.400001;5.85;;;;;;;12.72;100;95079.82;;;;
2022/05/25 04:01:29;;;;;;;6.400001;5.85;;;;;;;12.72;100;95079.82;;;;
2022/05/25 04:02:31;;;;;;;7.550001;6.9;;;;;;;12.8;100;95087.95;;;;
2022/05/25 04:03:31;;;;;;;7.550001;6.9;;;;;;;12.8;100;95087.95;;;;
2022/05/25 04:04:32;;;;;;;7.550001;6.9;;;;;;;12.8;100;95087.95;;;;
2022/05/25 04:05:33;;;;;;;7.550001;6.9;;;;;;;12.8;100;95087.95;;;;
2022/05/25 04:06:34;;;;;;;7.550001;6.9;;;;;;;12.8;100;95087.95;;;;
2022/05/25 04:07:35;;;;;;;7.550001;6.9;;;;;;;12.8;100;95087.95;;;;
2022/05/25 04:08:39;;;;;;;7.550001;6.9;;;;;;;12.8;100;95087.95;;;;
2022/05/25 04:09:40;;;;;;;7.550001;6.9;;;;;;;12.8;100;95087.95;;;;
2022/05/25 04:10:40;;;;;;;7.550001;6.9;;;;;;;12.8;100;95087.95;;;;
2022/05/25 04:11:41;;;;;;;7.550001;6.9;;;;;;;12.8;100;95087.95;;;;
2022/05/25 04:12:42;;;;;;;7.550001;6.9;;;;;;;12.8;100;95087.95;;;;
2022/05/25 04:13:44;;;;;;;7.8;7.1;;;;;;;12.9;100;95103.19;;;;
2022/05/25 04:14:44;;;;;;;7.8;7.1;;;;;;;12.9;100;95103.19;;;;
2022/05/25 04:15:45;;;;;;;7.8;7.1;;;;;;;12.9;100;95103.19;;;;
2022/05/25 04:16:45;;;;;;;7.8;7.1;;;;;;;12.9;100;95103.19;;;;
2022/05/25 04:17:45;;;;;;;7.8;7.1;;;;;;;12.9;100;95103.19;;;;
2022/05/25 04:18:46;;;;;;;7.8;7.1;;;;;;;12.9;100;95103.19;;;;
2022/05/25 04:19:47;;;;;;;7.8;7.1;;;;;;;12.9;100;95103.19;;;;
2022/05/25 04:20:47;;;;;;;7.8;7.1;;;;;;;12.9;100;95103.19;;;;
2022/05/25 04:21:48;;;;;;;7.8;7.1;;;;;;;12.9;100;95103.19;;;;
2022/05/25 04:22:48;;;;;;;7.8;7.1;;;;;;;12.9;100;95103.19;;;;
2022/05/25 04:23:49;;;;;;;8.450001;7.750001;;;;;;;12.95;100;95111.64;;;;
2022/05/25 04:24:50;;;;;;;8.450001;7.750001;;;;;;;12.95;100;95111.64;;;;
2022/05/25 04:25:50;;;;;;;8.450001;7.750001;;;;;;;12.95;100;95111.64;;;;
2022/05/25 04:26:51;;;;;;;8.450001;7.750001;;;;;;;12.95;100;95111.64;;;;
2022/05/25 04:27:51;;;;;;;8.450001;7.750001;;;;;;;12.95;100;95111.64;;;;
2022/05/25 04:28:54;;;;;;;8.450001;7.750001;;;;;;;12.95;100;95111.64;;;;
2022/05/25 04:29:54;;;;;;;8.450001;7.750001;;;;;;;12.95;100;95111.64;;;;
2022/05/25 04:30:55;;;;;;;8.450001;7.750001;;;;;;;12.95;100;95111.64;;;;
2022/05/25 04:31:55;;;;;;;8.450001;7.750001;;;;;;;12.95;100;95111.64;;;;
2022/05/25 04:32:56;;;;;;;8.450001;7.750001;;;;;;;12.95;100;95111.64;;;;
2022/05/25 04:33:56;;;;;;;8.450001;7.750001;;;;;;;12.95;100;95111.64;;;;
2022/05/25 04:34:58;;;;;;;8.150002;7.45;;;;;;;13.06;100;95122.42;;;;
2022/05/25 04:35:59;;;;;;;8.150002;7.45;;;;;;;13.06;100;95122.42;;;;
2022/05/25 04:37:48;;;;;;;8.150002;7.45;;;;;;;13.06;100;95122.42;;;;
2022/05/25 04:38:50;;;;;;;8.150002;7.45;;;;;;;13.06;100;95122.42;;;;
2022/05/25 04:39:50;;;;;;;8.150002;7.45;;;;;;;13.06;100;95122.42;;;;
2022/05/25 04:40:51;;;;;;;8.150002;7.45;;;;;;;13.06;100;95122.42;;;;
2022/05/25 04:41:52;;;;;;;8.150002;7.45;;;;;;;13.06;100;95122.42;;;;
2022/05/25 04:42:52;;;;;;;8.150002;7.45;;;;;;;13.06;100;95122.42;;;;
2022/05/25 04:43:54;;;;;;;8.150002;7.45;;;;;;;13.06;100;95122.42;;;;
2022/05/25 04:44:59;;;;;;;8.150002;7.45;;;;;;;13.06;100;95122.42;;;;
2022/05/25 04:46:03;;;;;;;8.150002;7.45;;;;;;;13.06;100;95122.42;;;;
2022/05/25 04:47:08;;;;;;;8.150002;7.45;;;;;;;13.06;100;95122.42;;;;
2022/05/25 04:48:08;;;;;;;8.150002;7.45;;;;;;;13.06;100;95122.42;;;;
2022/05/25 04:49:10;;;;;;;8.150002;7.45;;;;;;;13.06;100;95122.42;;;;
2022/05/25 04:50:10;;;;;;;8.150002;7.45;;;;;;;13.06;100;95122.42;;;;
2022/05/25 04:51:14;;;;;;;8.150002;7.45;;;;;;;13.06;100;95122.42;;;;
2022/05/25 04:52:15;;;;;;;8.150002;7.45;;;;;;;13.06;100;95122.42;;;;
2022/05/25 04:53:15;;;;;;;8.150002;7.45;;;;;;;13.06;100;95122.42;;;;
2022/05/25 04:54:19;;;;;;;8.150002;7.45;;;;;;;13.06;100;95122.42;;;;
2022/05/25 05:00:29;;;;;;;9.700001;8.749999;;;;;;;13.11;100;95143.36;;;;
2022/05/25 05:01:31;;;;;;;9.700001;8.749999;;;;;;;13.11;100;95143.36;;;;
2022/05/25 05:02:31;;;;;;;9.700001;8.749999;;;;;;;13.11;100;95143.36;;;;
2022/05/25 05:03:32;;;;;;;9.700001;8.749999;;;;;;;13.11;100;95143.36;;;;
2022/05/25 05:04:33;;;;;;;9.700001;8.749999;;;;;;;13.11;100;95143.36;;;;
2022/05/25 05:05:34;;;;;;;9.700001;8.749999;;;;;;;13.11;100;95143.36;;;;
2022/05/25 05:06:34;;;;;;;9.7;8.85;;;;;;;13.08;100;95155.77;;;;
2022/05/25 05:07:35;;;;;;;9.7;8.85;;;;;;;13.08;100;95155.77;;;;
2022/05/25 05:08:35;;;;;;;9.7;8.85;;;;;;;13.08;100;95155.77;;;;
2022/05/25 05:09:37;;;;;;;9.7;8.85;;;;;;;13.08;100;95155.77;;;;
2022/05/25 05:10:39;;;;;;;9.7;8.85;;;;;;;13.08;100;95155.77;;;;
2022/05/25 05:11:40;;;;;;;9.7;8.85;;;;;;;13.08;100;95155.77;;;;
2022/05/25 05:12:43;;;;;;;9.7;8.85;;;;;;;13.08;100;95155.77;;;;
2022/05/25 05:13:44;;;;;;;9.7;8.85;;;;;;;13.08;100;95155.77;;;;
2022/05/25 05:14:44;;;;;;;9.7;8.85;;;;;;;13.08;100;95155.77;;;;
2022/05/25 05:15:45;;;;;;;9.7;8.85;;;;;;;13.08;100;95155.77;;;;
2022/05/25 05:16:48;;;;;;;9.7;8.85;;;;;;;13.08;100;95155.77;;;;
2022/05/25 05:17:54;;;;;;;10.15;9.15;;;;;;;13;100;95178.64;;;;
2022/05/25 05:18:54;;;;;;;10.15;9.15;;;;;;;13;100;95178.64;;;;
2022/05/25 05:19:56;;;;;;;10.15;9.15;;;;;;;13;100;95178.64;;;;
2022/05/25 05:20:56;;;;;;;10.15;9.15;;;;;;;13;100;95178.64;;;;
2022/05/25 05:21:57;;;;;;;10.15;9.15;;;;;;;13;100;95178.64;;;;
2022/05/25 05:22:58;;;;;;;10.15;9.15;;;;;;;13;100;95178.64;;;;
2022/05/25 05:23:58;;;;;;;10.15;9.15;;;;;;;13;100;95178.64;;;;
2022/05/25 05:24:59;;;;;;;10.15;9.15;;;;;;;13;100;95178.64;;;;
2022/05/25 05:25:59;;;;;;;10.15;9.15;;;;;;;13;100;95178.64;;;;
2022/05/25 05:27:00;;;;;;;10.15;9.15;;;;;;;13;100;95178.64;;;;
2022/05/25 05:28:00;;;;;;;10.9;9.9;;;;;;;13.01;100;95199.77;;;;
2022/05/25 05:29:07;;;;;;;10.9;9.9;;;;;;;13.01;100;95199.77;;;;
2022/05/25 05:30:08;;;;;;;10.9;9.9;;;;;;;13.01;100;95199.77;;;;
2022/05/25 05:31:12;;;;;;;10.9;9.9;;;;;;;13.01;100;95199.77;;;;
2022/05/25 05:32:13;;;;;;;10.9;9.9;;;;;;;13.01;100;95199.77;;;;
2022/05/25 05:33:14;;;;;;;10.9;9.9;;;;;;;13.01;100;95199.77;;;;
2022/05/25 05:34:14;;;;;;;10.9;9.9;;;;;;;13.01;100;95199.77;;;;
2022/05/25 05:35:15;;;;;;;10.9;9.9;;;;;;;13.01;100;95199.77;;;;
2022/05/25 05:36:15;;;;;;;10.9;9.9;;;;;;;13.01;100;95199.77;;;;
2022/05/25 05:37:20;;;;;;;10.9;9.9;;;;;;;13.01;100;95199.77;;;;
2022/05/25 05:38:24;;;;;;;10.9;9.9;;;;;;;13.01;100;95199.77;;;;
2022/05/25 05:39:26;;;;;;;11.25;10.15;;;;;;;13.08;100;95227.01;;;;
2022/05/25 05:40:31;;;;;;;11.25;10.15;;;;;;;13.08;100;95227.01;;;;
2022/05/25 05:41:32;;;;;;;11.25;10.15;;;;;;;13.08;100;95227.01;;;;
2022/05/25 05:42:39;;;;;;;11.25;10.15;;;;;;;13.08;100;95227.01;;;;
2022/05/25 05:43:41;;;;;;;11.25;10.15;;;;;;;13.08;100;95227.01;;;;
2022/05/25 05:44:41;;;;;;;11.25;10.15;;;;;;;13.08;100;95227.01;;;;
2022/05/25 05:45:51;;;;;;;11.25;10.15;;;;;;;13.08;100;95227.01;;;;
2022/05/25 05:46:54;;;;;;;11.25;10.15;;;;;;;13.08;100;95227.01;;;;
2022/05/25 05:47:57;;;;;;;11.25;10.15;;;;;;;13.08;100;95227.01;;;;
2022/05/25 05:49:04;;;;;;;11.25;10.15;;;;;;;13.08;100;95227.01;;;;
2022/05/25 05:50:05;;;;;;;12.3;11.05;;;;;;;13.14;100;95243.25;;;;
2022/05/25 05:51:08;;;;;;;12.3;11.05;;;;;;;13.14;100;95243.25;;;;
2022/05/25 05:52:09;;;;;;;12.3;11.05;;;;;;;13.14;100;95243.25;;;;
2022/05/25 05:53:11;;;;;;;12.3;11.05;;;;;;;13.14;100;95243.25;;;;
2022/05/25 05:54:12;;;;;;;12.3;11.05;;;;;;;13.14;100;95243.25;;;;
2022/05/25 05:55:14;;;;;;;12.3;11.05;;;;;;;13.14;100;95243.25;;;;
2022/05/25 05:56:15;;;;;;;12.3;11.05;;;;;;;13.14;100;95243.25;;;;
2022/05/25 05:57:16;;;;;;;12.3;11.05;;;;;;;13.14;100;95243.25;;;;
2022/05/25 05:58:17;;;;;;;12.3;11.05;;;;;;;13.14;100;95243.25;;;;
2022/05/25 05:59:17;;;;;;;12.3;11.05;;;;;;;13.14;100;95243.25;;;;
2022/05/25 06:00:18;;;;;;;12.75;11.5;;;;;;;13.21;100;95268.73;;;;
2022/05/25 06:01:19;;;;;;;12.75;11.5;;;;;;;13.21;100;95268.73;;;;
2022/05/25 06:02:20;;;;;;;12.75;11.5;;;;;;;13.21;100;95268.73;;;;
2022/05/25 06:03:20;;;;;;;12.75;11.5;;;;;;;13.21;100;95268.73;;;;
2022/05/25 06:04:22;;;;;;;12.75;11.5;;;;;;;13.21;100;95268.73;;;;
2022/05/25 06:05:22;;;;;;;12.75;11.5;;;;;;;13.21;100;95268.73;;;;
2022/05/25 06:06:23;;;;;;;12.75;11.5;;;;;;;13.21;100;95268.73;;;;
2022/05/25 06:07:24;;;;;;;12.75;11.5;;;;;;;13.21;100;95268.73;;;;
2022/05/25 06:08:26;;;;;;;12.75;11.5;;;;;;;13.21;100;95268.73;;;;
2022/05/25 06:09:26;;;;;;;12.75;11.5;;;;;;;13.21;100;95268.73;;;;
2022/05/25 06:10:27;;;;;;;12.75;11.5;;;;;;;13.21;100;95268.73;;;;
2022/05/25 06:11:27;;;;;;;13;11.65;;;;;;;13.27;100;95284.69;;;;
2022/05/25 06:12:28;;;;;;;13;11.65;;;;;;;13.27;100;95284.69;;;;
2022/05/25 06:13:29;;;;;;;13;11.65;;;;;;;13.27;100;95284.69;;;;
2022/05/25 06:14:30;;;;;;;13;11.65;;;;;;;13.27;100;95284.69;;;;
2022/05/25 06:20:42;;;;;;;13;11.65;;;;;;;13.27;100;95284.69;;;;
2022/05/25 06:21:47;;;;;;;12.1;10.9;;;;;;;13.34;100;95299.06;;;;
2022/05/25 06:22:47;;;;;;;12.1;10.9;;;;;;;13.34;100;95299.06;;;;
2022/05/25 06:23:48;;;;;;;12.1;10.9;;;;;;;13.34;100;95299.06;;;;
2022/05/25 06:24:49;;;;;;;12.1;10.9;;;;;;;13.34;100;95299.06;;;;
2022/05/25 06:25:51;;;;;;;12.1;10.9;;;;;;;13.34;100;95299.06;;;;
2022/05/25 06:26:51;;;;;;;12.1;10.9;;;;;;;13.34;100;95299.06;;;;
2022/05/25 06:27:52;;;;;;;12.1;10.9;;;;;;;13.34;100;95299.06;;;;
2022/05/25 06:28:52;;;;;;;12.1;10.9;;;;;;;13.34;100;95299.06;;;;
2022/05/25 06:29:53;;;;;;;12.1;10.9;;;;;;;13.34;100;95299.06;;;;
2022/05/25 06:30:54;;;;;;;12.1;10.9;;;;;;;13.34;100;95299.06;;;;
2022/05/25 06:31:54;;;;;;;9.150002;8.35;;;;;;;13.47;100;95304.3;;;;
2022/05/25 06:32:55;;;;;;;9.150002;8.35;;;;;;;13.47;100;95304.3;;;;
2022/05/25 06:33:55;;;;;;;9.150002;8.35;;;;;;;13.47;100;95304.3;;;;
2022/05/25 06:34:56;;;;;;;9.150002;8.35;;;;;;;13.47;100;95304.3;;;;
2022/05/25 06:35:57;;;;;;;9.150002;8.35;;;;;;;13.47;100;95304.3;;;;
2022/05/25 06:37:10;;;;;;;9.150002;8.35;;;;;;;13.47;100;95304.3;;;;
2022/05/25 06:38:13;;;;;;;9.150002;8.35;;;;;;;13.47;100;95304.3;;;;
2022/05/25 06:39:14;;;;;;;9.150002;8.35;;;;;;;13.47;100;95304.3;;;;
2022/05/25 06:40:15;;;;;;;9.150002;8.35;;;;;;;13.47;100;95304.3;;;;